Time;durP1;ratioP1;P1;durP2;ratioP2;P2;SDS_P1;SDS_P2;PMS_P1;PMS_P2;Temp;Humidity;BMP_temperature;BMP_pressure;BME280_temperature;BME280_humidity;BME280_pressure;Samples;Min_cycle;Max_cycle;Signal;HPM_P1;HPM_P2
2022/08/28 00:00:14;;;;;;;;;;;;;;;19.33;93.51;99755.41;1087871;54;19942;-76
2022/08/28 00:01:15;;;;;;;;;;;;;;;19.33;93.64;99755.41;1087662;54;20979;-76
2022/08/28 00:02:19;;;;;;;;;;;;;;;19.31;94.11;99757.50;1087814;54;20808;-76
2022/08/28 00:03:20;;;;;;;;;;;;;;;19.29;94.02;99759.56;1087819;54;19958;-76
2022/08/28 00:04:24;;;;;;;;;;;;;;;19.29;94.43;99760.44;1087927;54;19949;-76
2022/08/28 00:05:29;;;;;;;;;;;;;;;19.26;94.80;99760.00;1087772;54;19942;-77
2022/08/28 00:06:33;;;;;;;;;;;;;;;19.26;95.01;99754.59;1087800;54;19954;-76
2022/08/28 00:07:34;;;;;;;;;;;;;;;19.28;95.07;99752.47;1087746;54;19950;-78
2022/08/28 00:08:38;;;;;;;;;;;;;;;19.29;95.14;99760.44;1087915;54;20002;-76
2022/08/28 00:09:39;;;;;;;;;;;;;;;19.31;94.91;99769.19;1087759;54;19950;-76
2022/08/28 00:10:43;;;;;;;;;;;;;;;19.31;94.72;99762.91;1087906;54;19949;-75
2022/08/28 00:11:45;;;;;;;;;;;;;;;19.34;94.91;99762.50;1087673;54;19950;-75
2022/08/28 00:12:50;;;;;;;;;;;;;;;19.34;95.01;99762.50;1087755;54;19949;-75
2022/08/28 00:13:53;;;;;;;;;;;;;;;19.35;95.37;99761.47;1089122;39;20219;-78
2022/08/28 00:14:54;;;;;;;;;;;;;;;19.36;95.51;99760.44;1088490;46;19942;-77
2022/08/28 00:15:59;;;;;;;;;;;;;;;19.37;95.21;99762.06;1090554;46;19955;-77
2022/08/28 00:17:00;;;;;;;;;;;;;;;19.39;95.01;99768.13;1087863;54;19943;-76
2022/08/28 00:18:05;;;;;;;;;;;;;;;19.39;94.63;99767.28;1087742;54;19950;-76
2022/08/28 00:19:06;;;;;;;;;;;;;;;19.40;94.70;99763.53;1089667;46;19943;-76
2022/08/28 00:20:11;;;;;;;;;;;;;;;19.39;94.69;99768.13;1087608;54;20950;-77
2022/08/28 00:21:18;;;;;;;;;;;;;;;19.38;94.78;99766.44;1087901;54;19967;-76
2022/08/28 00:22:19;;;;;;;;;;;;;;;19.38;95.03;99763.75;1087746;54;19966;-76
2022/08/28 00:23:24;;;;;;;;;;;;;;;19.38;94.98;99758.31;1087835;54;19969;-76
2022/08/28 00:24:25;;;;;;;;;;;;;;;19.38;94.95;99763.75;1087666;54;19950;-76
2022/08/28 00:25:30;;;;;;;;;;;;;;;19.38;95.09;99761.03;1087895;54;19950;-76
2022/08/28 00:27:53;;;;;;;;;;;;;;;19.38;95.12;99755.59;1087798;54;19942;-78
2022/08/28 00:28:55;;;;;;;;;;;;;;;19.36;95.43;99757.72;1087616;54;19939;-76
2022/08/28 00:29:58;;;;;;;;;;;;;;;19.37;95.62;99761.25;1090283;39;20781;-76
2022/08/28 00:30:59;;;;;;;;;;;;;;;19.37;95.15;99761.25;1087888;46;19943;-76
2022/08/28 00:32:04;;;;;;;;;;;;;;;19.36;95.54;99765.84;1087802;54;19953;-75
2022/08/28 00:33:06;;;;;;;;;;;;;;;19.37;95.58;99761.25;1087647;54;19954;-76
2022/08/28 00:34:10;;;;;;;;;;;;;;;19.35;95.88;99753.34;1087867;54;19939;-77
2022/08/28 00:35:12;;;;;;;;;;;;;;;19.36;96.32;99759.56;1087737;54;19938;-76
2022/08/28 00:36:18;;;;;;;;;;;;;;;19.37;96.40;99766.66;1087872;54;19954;-76
2022/08/28 00:37:19;;;;;;;;;;;;;;;19.36;96.41;99762.28;1087738;54;19970;-76
2022/08/28 00:38:24;;;;;;;;;;;;;;;19.34;95.99;99757.09;1087822;54;19949;-76
2022/08/28 00:39:25;;;;;;;;;;;;;;;19.39;96.01;99767.28;1087713;54;19942;-75
2022/08/28 00:40:30;;;;;;;;;;;;;;;19.39;95.78;99765.41;1087791;54;19990;-77
2022/08/28 00:41:33;;;;;;;;;;;;;;;19.39;95.69;99770.81;1087753;54;19935;-76
2022/08/28 00:42:37;;;;;;;;;;;;;;;19.41;95.61;99759.81;1087647;54;19942;-76
2022/08/28 00:43:42;;;;;;;;;;;;;;;19.43;95.43;99765.81;1087752;54;20227;-77
2022/08/28 00:44:44;;;;;;;;;;;;;;;19.43;95.87;99760.41;1087801;54;20013;-76
2022/08/28 00:45:48;;;;;;;;;;;;;;;19.45;95.42;99764.59;1087571;54;19942;-76
2022/08/28 00:46:50;;;;;;;;;;;;;;;19.44;95.20;99760.22;1087744;54;20006;-77
2022/08/28 00:47:54;;;;;;;;;;;;;;;19.42;95.46;99765.00;1089908;46;19939;-75
2022/08/28 00:48:55;;;;;;;;;;;;;;;19.43;95.21;99760.41;1087760;54;19938;-76
2022/08/28 00:49:59;;;;;;;;;;;;;;;19.42;95.01;99751.44;1087707;54;19939;-77
2022/08/28 00:52:21;;;;;;;;;;;;;;;19.41;94.93;99757.09;1087806;54;19943;-76
2022/08/28 00:53:22;;;;;;;;;;;;;;;19.39;94.93;99754.56;1087766;54;19943;-76
2022/08/28 00:54:26;;;;;;;;;;;;;;;19.39;94.86;99760.00;1087796;54;19994;-76
2022/08/28 00:55:28;;;;;;;;;;;;;;;19.40;94.64;99758.94;1087619;54;19970;-75
2022/08/28 00:56:33;;;;;;;;;;;;;;;19.41;94.55;99755.19;1087782;54;19976;-75
2022/08/28 00:57:36;;;;;;;;;;;;;;;19.39;94.63;99760.00;1087491;54;20221;-76
2022/08/28 00:58:40;;;;;;;;;;;;;;;19.39;94.62;99751.03;1087698;54;19953;-76
2022/08/28 00:59:41;;;;;;;;;;;;;;;19.39;94.55;99753.75;1087674;54;19990;-76
2022/08/28 01:00:45;;;;;;;;;;;;;;;19.36;94.88;99748.75;1087783;54;19923;-76
2022/08/28 01:01:47;;;;;;;;;;;;;;;19.36;94.84;99746.03;1088151;39;20645;-77
2022/08/28 01:02:51;;;;;;;;;;;;;;;19.36;94.64;99749.59;1087599;54;19950;-76
2022/08/28 01:03:53;;;;;;;;;;;;;;;19.37;94.64;99747.69;1087808;54;19955;-75
2022/08/28 01:04:57;;;;;;;;;;;;;;;19.37;94.75;99751.22;1087806;54;19942;-76
2022/08/28 01:05:58;;;;;;;;;;;;;;;19.37;94.61;99753.13;1087720;54;20003;-76
2022/08/28 01:07:04;;;;;;;;;;;;;;;19.36;94.91;99749.59;1087704;54;19950;-77
2022/08/28 01:08:08;;;;;;;;;;;;;;;19.36;94.81;99754.16;1087558;54;19943;-76
2022/08/28 01:09:13;;;;;;;;;;;;;;;19.38;94.96;99752.91;1087703;54;19950;-76
2022/08/28 01:10:18;;;;;;;;;;;;;;;19.37;94.77;99751.22;1087758;54;19950;-76
2022/08/28 01:11:20;;;;;;;;;;;;;;;19.36;94.76;99749.59;1087719;54;19957;-77
2022/08/28 01:12:25;;;;;;;;;;;;;;;19.33;95.65;99748.09;1087681;54;19943;-77
2022/08/28 01:13:27;;;;;;;;;;;;;;;19.29;96.39;99748.75;1087742;54;19942;-76
2022/08/28 01:14:33;;;;;;;;;;;;;;;19.28;96.83;99752.47;1088709;39;20577;-77
2022/08/28 01:15:36;;;;;;;;;;;;;;;19.26;96.69;99750.00;1087724;54;19958;-76
2022/08/28 01:16:40;;;;;;;;;;;;;;;19.26;96.15;99744.56;1087668;54;19999;-77
2022/08/28 01:17:43;;;;;;;;;;;;;;;19.21;97.66;99744.38;1087674;54;19943;-77
2022/08/28 01:18:48;;;;;;;;;;;;;;;19.17;97.92;99749.38;1087714;54;19943;-77
2022/08/28 01:19:55;;;;;;;;;;;;;;;19.16;98.44;99749.56;1087637;54;20768;-76
2022/08/28 01:21:04;;;;;;;;;;;;;;;19.15;98.64;99746.03;1087596;54;19957;-77
2022/08/28 01:22:11;;;;;;;;;;;;;;;19.14;98.94;99741.66;1087677;54;19942;-77
2022/08/28 01:23:22;;;;;;;;;;;;;;;19.13;99.31;99745.41;1087663;54;19946;-77
2022/08/28 01:24:26;;;;;;;;;;;;;;;19.10;99.52;99745.81;1088247;46;19991;-76
2022/08/28 01:25:32;;;;;;;;;;;;;;;19.07;100.00;99746.25;1087650;54;20591;-77
2022/08/28 01:26:34;;;;;;;;;;;;;;;19.04;100.00;99748.53;1087725;54;19946;-77
2022/08/28 01:27:40;;;;;;;;;;;;;;;19.00;100.00;99745.41;1087632;54;19994;-76
2022/08/28 01:28:41;;;;;;;;;;;;;;;19.00;100.00;99748.97;1087669;54;19927;-76
2022/08/28 01:29:45;;;;;;;;;;;;;;;18.99;100.00;99750.00;1087655;54;19950;-76
2022/08/28 01:30:47;;;;;;;;;;;;;;;18.98;100.00;99748.31;1087668;54;19954;-76
2022/08/28 01:31:51;;;;;;;;;;;;;;;18.97;100.00;99754.78;1087727;54;19939;-76
2022/08/28 01:32:53;;;;;;;;;;;;;;;19.00;100.00;99750.81;1087697;54;19962;-76
2022/08/28 01:33:58;;;;;;;;;;;;;;;19.00;100.00;99753.53;1087642;54;19949;-75
2022/08/28 01:34:59;;;;;;;;;;;;;;;18.99;100.00;99754.56;1087675;54;19942;-76
2022/08/28 01:36:03;;;;;;;;;;;;;;;18.97;100.00;99746.66;1087649;54;19946;-75
2022/08/28 01:37:04;;;;;;;;;;;;;;;18.97;100.00;99752.06;1087690;54;19951;-76
2022/08/28 01:38:08;;;;;;;;;;;;;;;18.96;100.00;99763.13;1087659;54;19947;-76
2022/08/28 01:39:12;;;;;;;;;;;;;;;18.98;100.00;99753.75;1087633;54;19966;-76
2022/08/28 01:40:21;;;;;;;;;;;;;;;19.02;100.00;99752.31;1087663;54;19949;-76
2022/08/28 01:41:22;;;;;;;;;;;;;;;19.01;100.00;99747.91;1087600;54;19943;-76
2022/08/28 01:42:26;;;;;;;;;;;;;;;18.99;100.00;99754.56;1087742;54;19942;-76
2022/08/28 01:43:30;;;;;;;;;;;;;;;18.98;100.00;99758.34;1087598;54;19943;-76
2022/08/28 01:44:33;;;;;;;;;;;;;;;19.00;100.00;99759.78;1087702;54;19951;-76
2022/08/28 01:46:42;;;;;;;;;;;;;;;19.00;99.93;99750.81;1083447;54;20447;-76
2022/08/28 01:47:44;;;;;;;;;;;;;;;19.00;100.00;99756.22;1083349;54;19953;-76
2022/08/28 01:48:48;;;;;;;;;;;;;;;19.02;99.89;99751.44;1083683;54;19971;-75
2022/08/28 01:49:49;;;;;;;;;;;;;;;19.05;99.54;99748.34;1083635;39;20566;-75
2022/08/28 01:50:52;;;;;;;;;;;;;;;19.06;99.51;99752.72;1083247;54;19958;-75
2022/08/28 01:51:55;;;;;;;;;;;;;;;19.07;99.01;99757.09;1083476;54;19947;-77
2022/08/28 01:52:59;;;;;;;;;;;;;;;19.08;98.95;99761.44;1083483;46;19985;-77
2022/08/28 01:54:00;;;;;;;;;;;;;;;19.08;99.29;99761.44;1083135;54;19951;-76
2022/08/28 01:55:04;;;;;;;;;;;;;;;19.10;99.29;99758.56;1083488;54;20010;-76
2022/08/28 01:56:10;;;;;;;;;;;;;;;19.12;99.14;99757.28;1083596;54;19946;-76
2022/08/28 01:57:14;;;;;;;;;;;;;;;19.12;99.23;99753.75;1083804;54;20050;-78
2022/08/28 01:58:15;;;;;;;;;;;;;;;19.14;99.03;99757.94;1083166;54;19977;-77
2022/08/28 01:59:19;;;;;;;;;;;;;;;19.13;98.98;99761.66;1083584;54;19969;-77
2022/08/28 02:00:21;;;;;;;;;;;;;;;19.13;98.83;99760.81;1083340;54;19946;-75
2022/08/28 02:01:24;;;;;;;;;;;;;;;19.09;98.95;99759.59;1083539;54;20070;-77
2022/08/28 02:02:25;;;;;;;;;;;;;;;19.11;98.85;99762.94;1083646;54;19946;-76
2022/08/28 02:03:29;;;;;;;;;;;;;;;19.11;99.27;99766.47;1083773;39;20722;-77
2022/08/28 02:04:31;;;;;;;;;;;;;;;19.11;99.25;99763.75;1083964;39;20366;-77
2022/08/28 02:05:36;;;;;;;;;;;;;;;19.12;99.03;99770.84;1083405;54;20409;-76
2022/08/28 02:06:37;;;;;;;;;;;;;;;19.09;99.25;99768.53;1083112;54;19946;-77
2022/08/28 02:07:42;;;;;;;;;;;;;;;19.10;98.95;99762.06;1083181;54;19946;-77
2022/08/28 02:08:43;;;;;;;;;;;;;;;19.08;99.08;99763.34;1083395;54;19947;-78
2022/08/28 02:09:47;;;;;;;;;;;;;;;19.07;98.90;99764.38;1083573;54;19950;-77
2022/08/28 02:10:48;;;;;;;;;;;;;;;19.09;99.14;99765.81;1083528;54;19957;-76
2022/08/28 02:11:54;;;;;;;;;;;;;;;19.08;99.09;99769.56;1083672;54;19954;-76
2022/08/28 02:12:56;;;;;;;;;;;;;;;19.06;98.16;99771.69;1083361;54;19951;-77
2022/08/28 02:14:01;;;;;;;;;;;;;;;19.10;98.63;99766.69;1083403;54;19947;-77
2022/08/28 02:15:02;;;;;;;;;;;;;;;19.09;98.11;99765.81;1083355;54;20424;-77
2022/08/28 02:16:07;;;;;;;;;;;;;;;19.10;97.97;99769.38;1083499;54;20461;-77
2022/08/28 02:17:11;;;;;;;;;;;;;;;19.11;97.76;99768.34;1083434;54;19946;-77
2022/08/28 02:18:13;;;;;;;;;;;;;;;19.07;97.28;99769.78;1083557;54;19947;-78
2022/08/28 02:19:16;;;;;;;;;;;;;;;19.02;96.92;99776.69;1083012;54;19977;-77
2022/08/28 02:20:18;;;;;;;;;;;;;;;19.06;97.44;99771.69;1083447;54;19970;-77
2022/08/28 02:21:22;;;;;;;;;;;;;;;19.07;97.40;99773.34;1083285;54;19966;-77
2022/08/28 02:22:23;;;;;;;;;;;;;;;19.05;96.91;99778.13;1083656;54;19981;-78
2022/08/28 02:23:26;;;;;;;;;;;;;;;19.07;97.30;99778.78;1083545;54;19953;-77
2022/08/28 02:24:28;;;;;;;;;;;;;;;19.05;96.96;99775.44;1083774;39;20353;-77
2022/08/28 02:25:32;;;;;;;;;;;;;;;19.06;96.56;99770.81;1083608;54;19973;-77
2022/08/28 02:26:33;;;;;;;;;;;;;;;19.08;96.64;99782.28;1083324;46;19962;-77
2022/08/28 02:27:41;;;;;;;;;;;;;;;19.05;96.69;99778.13;1083306;54;19946;-77
2022/08/28 02:28:42;;;;;;;;;;;;;;;19.05;96.48;99778.13;1083361;54;19954;-78
2022/08/28 02:29:46;;;;;;;;;;;;;;;19.04;96.90;99779.16;1083178;54;19954;-76
2022/08/28 02:30:47;;;;;;;;;;;;;;;19.00;96.94;99773.34;1083449;47;19950;-78
2022/08/28 02:31:51;;;;;;;;;;;;;;;19.01;96.73;99776.88;1083104;54;20020;-77
2022/08/28 02:32:52;;;;;;;;;;;;;;;18.98;96.96;99772.69;1083036;54;20448;-77
2022/08/28 02:33:56;;;;;;;;;;;;;;;19.00;97.49;99772.50;1083070;54;19950;-77
2022/08/28 02:34:57;;;;;;;;;;;;;;;19.00;96.86;99773.34;1083517;54;20440;-77
2022/08/28 02:36:00;;;;;;;;;;;;;;;18.99;97.21;99776.22;1083137;39;20528;-77
2022/08/28 02:37:02;;;;;;;;;;;;;;;19.01;96.87;99768.75;1082989;54;19967;-78
2022/08/28 02:38:05;;;;;;;;;;;;;;;18.96;95.23;99779.38;1083408;47;19970;-78
2022/08/28 02:39:07;;;;;;;;;;;;;;;19.00;96.67;99775.19;1083402;54;19969;-77
2022/08/28 02:40:13;;;;;;;;;;;;;;;19.00;96.43;99772.50;1083763;39;20765;-77
2022/08/28 02:41:14;;;;;;;;;;;;;;;19.02;96.16;99771.25;1083272;39;20317;-77
2022/08/28 02:42:18;;;;;;;;;;;;;;;19.02;95.76;99767.69;1082785;54;20725;-78
2022/08/28 02:43:21;;;;;;;;;;;;;;;19.03;95.58;99763.97;1083052;54;19946;-78
2022/08/28 02:44:26;;;;;;;;;;;;;;;19.04;95.40;99770.19;1083015;54;19970;-77
2022/08/28 02:45:27;;;;;;;;;;;;;;;19.02;94.03;99765.00;1083013;54;20457;-78
2022/08/28 02:46:32;;;;;;;;;;;;;;;19.01;94.45;99776.88;1082400;54;19946;-77
2022/08/28 02:47:33;;;;;;;;;;;;;;;18.92;93.58;99773.50;1082768;46;19962;-78
2022/08/28 02:48:38;;;;;;;;;;;;;;;18.90;93.76;99777.44;1082866;54;20037;-77
2022/08/28 02:49:39;;;;;;;;;;;;;;;18.87;94.18;99770.56;1082820;54;19947;-77
2022/08/28 02:50:43;;;;;;;;;;;;;;;18.85;93.97;99768.06;1082909;54;19957;-77
2022/08/28 02:51:47;;;;;;;;;;;;;;;18.75;92.61;99762.22;1082963;54;19951;-77
2022/08/28 02:52:50;;;;;;;;;;;;;;;18.71;93.36;99767.22;1082754;54;19939;-77
2022/08/28 02:53:54;;;;;;;;;;;;;;;18.65;92.97;99767.19;1083195;54;20038;-77
2022/08/28 02:54:55;;;;;;;;;;;;;;;18.68;94.18;99767.63;1082929;54;20437;-77
2022/08/28 02:56:01;;;;;;;;;;;;;;;18.75;94.13;99769.53;1083028;54;19958;-79
2022/08/28 02:57:03;;;;;;;;;;;;;;;18.80;93.79;99761.59;1082893;54;19973;-77
2022/08/28 02:58:08;;;;;;;;;;;;;;;18.76;92.93;99777.44;1082870;54;19947;-76
2022/08/28 02:59:12;;;;;;;;;;;;;;;18.74;93.75;99768.66;1082860;54;19947;-79
2022/08/28 03:00:19;;;;;;;;;;;;;;;18.67;93.39;99767.84;1082869;54;20448;-79
2022/08/28 03:01:20;;;;;;;;;;;;;;;18.63;92.79;99766.56;1082910;54;19946;-78
2022/08/28 03:02:24;;;;;;;;;;;;;;;18.61;93.24;99768.66;1082897;54;19946;-77
2022/08/28 03:03:26;;;;;;;;;;;;;;;18.62;93.53;99770.31;1082950;54;19951;-78
2022/08/28 03:04:30;;;;;;;;;;;;;;;18.59;93.20;99768.03;1082932;54;20001;-78
2022/08/28 03:05:31;;;;;;;;;;;;;;;18.59;93.34;99762.63;1082871;54;20032;-78
2022/08/28 03:06:35;;;;;;;;;;;;;;;18.54;92.78;99764.03;1082973;54;19961;-78
2022/08/28 03:07:37;;;;;;;;;;;;;;;18.55;93.48;99765.72;1082759;54;19974;-79
2022/08/28 03:08:41;;;;;;;;;;;;;;;18.53;93.66;99761.56;1082773;54;19950;-78
2022/08/28 03:09:43;;;;;;;;;;;;;;;18.51;92.94;99760.91;1082969;54;19939;-78
2022/08/28 03:10:46;;;;;;;;;;;;;;;18.52;92.81;99766.13;1083010;54;19950;-80
2022/08/28 03:11:48;;;;;;;;;;;;;;;18.52;93.10;99760.69;1082950;54;19954;-76
2022/08/28 03:12:52;;;;;;;;;;;;;;;18.46;92.77;99764.22;1083048;54;19954;-79
2022/08/28 03:13:54;;;;;;;;;;;;;;;18.49;93.17;99755.72;1083000;54;19970;-78
2022/08/28 03:15:00;;;;;;;;;;;;;;;18.47;92.72;99770.47;1083069;54;19967;-78
2022/08/28 03:16:03;;;;;;;;;;;;;;;18.44;92.37;99765.47;1082801;54;19950;-78
2022/08/28 03:17:07;;;;;;;;;;;;;;;18.43;92.38;99767.34;1083361;47;19947;-78
2022/08/28 03:18:09;;;;;;;;;;;;;;;18.42;92.47;99765.66;1082989;54;20037;-77
2022/08/28 03:19:12;;;;;;;;;;;;;;;18.43;92.86;99763.81;1083529;39;20419;-79
2022/08/28 03:20:14;;;;;;;;;;;;;;;18.40;92.52;99762.34;1083363;47;19958;-77
2022/08/28 03:21:18;;;;;;;;;;;;;;;18.42;93.26;99765.66;1083119;54;19951;-78
2022/08/28 03:23:24;;;;;;;;;;;;;;;18.45;92.87;99759.84;1083753;39;20314;-79
2022/08/28 03:23:42;;;;;;;;;;;;;;;18.45;92.61;99767.97;1083162;54;19971;-76
2022/08/28 03:24:46;;;;;;;;;;;;;;;18.41;92.15;99766.72;1083145;54;19952;-78
2022/08/28 03:25:47;;;;;;;;;;;;;;;18.39;91.94;99766.09;1083099;54;19971;-76
2022/08/28 03:26:51;;;;;;;;;;;;;;;18.38;92.02;99753.59;1083118;54;20437;-76
2022/08/28 03:27:53;;;;;;;;;;;;;;;18.36;92.37;99769.19;1082855;47;20429;-78
2022/08/28 03:28:58;;;;;;;;;;;;;;;18.36;91.79;99770.03;1083309;54;19957;-78
2022/08/28 03:30:03;;;;;;;;;;;;;;;18.35;91.86;99762.09;1083263;54;19951;-78
2022/08/28 03:31:07;;;;;;;;;;;;;;;18.35;92.26;99764.81;1083311;54;19950;-77
2022/08/28 03:32:09;;;;;;;;;;;;;;;18.36;91.94;99763.78;1083622;54;19947;-78
2022/08/28 03:33:13;;;;;;;;;;;;;;;18.37;91.80;99762.75;1083376;54;19950;-78
2022/08/28 03:34:16;;;;;;;;;;;;;;;18.38;91.91;99767.13;1083621;54;19954;-78
2022/08/28 03:35:21;;;;;;;;;;;;;;;18.34;91.59;99761.28;1083450;54;19965;-77
2022/08/28 03:36:26;;;;;;;;;;;;;;;18.35;91.94;99759.41;1084019;39;20373;-77
2022/08/28 03:37:28;;;;;;;;;;;;;;;18.35;91.87;99764.81;1083468;54;19958;-75
2022/08/28 03:38:32;;;;;;;;;;;;;;;18.34;91.85;99757.72;1083355;54;19953;-80
2022/08/28 03:39:33;;;;;;;;;;;;;;;18.37;91.90;99760.03;1083675;54;19962;-78
2022/08/28 03:40:41;;;;;;;;;;;;;;;18.41;91.90;99764.03;1083521;54;19942;-76
2022/08/28 03:41:43;;;;;;;;;;;;;;;18.37;90.93;99765.44;1083618;46;20011;-78
2022/08/28 03:42:47;;;;;;;;;;;;;;;18.37;91.35;99762.75;1083888;39;20344;-77
2022/08/28 03:43:49;;;;;;;;;;;;;;;18.32;91.37;99765.25;1083416;54;20532;-82
2022/08/28 03:44:53;;;;;;;;;;;;;;;18.31;91.50;99763.56;1083693;54;19950;-77
2022/08/28 03:46:01;;;;;;;;;;;;;;;18.33;91.29;99772.28;1084058;54;19978;-81
2022/08/28 03:47:03;;;;;;;;;;;;;;;18.32;91.21;99778.78;1083581;54;19969;-81
2022/08/28 03:48:07;;;;;;;;;;;;;;;18.34;91.48;99769.41;1083662;54;19958;-77
2022/08/28 03:49:08;;;;;;;;;;;;;;;18.36;91.19;99766.50;1083702;54;19974;-78
2022/08/28 03:50:13;;;;;;;;;;;;;;;18.39;91.71;99769.63;1083764;54;20653;-80
2022/08/28 03:51:16;;;;;;;;;;;;;;;18.40;91.33;99763.16;1083997;54;19956;-79
2022/08/28 03:52:20;;;;;;;;;;;;;;;18.43;91.42;99777.34;1084181;54;19947;-80
2022/08/28 03:53:22;;;;;;;;;;;;;;;18.45;91.08;99770.69;1083616;54;19954;-79
2022/08/28 03:54:27;;;;;;;;;;;;;;;18.50;91.05;99770.91;1083842;54;19946;-78
2022/08/28 03:55:29;;;;;;;;;;;;;;;18.47;90.31;99762.34;1084044;54;19970;-78
2022/08/28 03:56:33;;;;;;;;;;;;;;;18.51;90.72;99764.47;1083831;54;19965;-78
2022/08/28 03:57:35;;;;;;;;;;;;;;;18.54;90.72;99766.75;1083534;54;19950;-78
2022/08/28 03:58:39;;;;;;;;;;;;;;;18.54;90.31;99774.88;1083493;54;19950;-78
2022/08/28 03:59:41;;;;;;;;;;;;;;;18.54;90.25;99769.47;1083471;54;20667;-78
2022/08/28 04:00:45;;;;;;;;;;;;;;;18.52;90.39;99776.13;1083632;54;19969;-79
2022/08/28 04:01:49;;;;;;;;;;;;;;;18.55;90.93;99773.84;1083927;54;19946;-78
2022/08/28 04:02:53;;;;;;;;;;;;;;;18.59;90.75;99770.72;1083603;54;19957;-77
2022/08/28 04:03:55;;;;;;;;;;;;;;;18.61;90.73;99774.06;1083900;54;19950;-77
2022/08/28 04:04:59;;;;;;;;;;;;;;;18.61;91.41;99765.97;1083779;54;19958;-76
2022/08/28 04:06:01;;;;;;;;;;;;;;;18.63;90.74;99771.97;1083573;46;19966;-77
2022/08/28 04:07:04;;;;;;;;;;;;;;;18.64;90.60;99773.66;1083598;54;19938;-78
2022/08/28 04:08:06;;;;;;;;;;;;;;;18.63;90.76;99767.41;1083593;46;20061;-78
2022/08/28 04:09:10;;;;;;;;;;;;;;;18.65;90.58;99773.47;1083514;54;19951;-78
2022/08/28 04:10:12;;;;;;;;;;;;;;;18.66;89.95;99774.28;1083977;39;20352;-78
2022/08/28 04:11:16;;;;;;;;;;;;;;;18.67;90.10;99770.53;1083785;54;19951;-77
2022/08/28 04:12:17;;;;;;;;;;;;;;;18.69;90.00;99771.19;1083363;54;19957;-78
2022/08/28 04:13:22;;;;;;;;;;;;;;;18.71;90.63;99769.06;1083593;54;19954;-78
2022/08/28 04:14:23;;;;;;;;;;;;;;;18.71;90.00;99780.75;1083828;54;19950;-77
2022/08/28 04:15:27;;;;;;;;;;;;;;;18.72;89.85;99776.16;1083306;54;20025;-77
2022/08/28 04:16:29;;;;;;;;;;;;;;;18.73;90.13;99777.84;1083466;54;19962;-78
2022/08/28 04:17:35;;;;;;;;;;;;;;;18.71;89.68;99778.03;1083553;54;19947;-76
2022/08/28 04:18:38;;;;;;;;;;;;;;;18.69;89.73;99771.19;1084013;39;20445;-79
2022/08/28 04:19:43;;;;;;;;;;;;;;;18.68;89.61;99775.75;1083338;39;20689;-77
2022/08/28 04:20:44;;;;;;;;;;;;;;;18.68;89.92;99780.34;1083818;47;21013;-78
2022/08/28 04:21:48;;;;;;;;;;;;;;;18.69;90.16;99782.00;1083933;39;20392;-78
2022/08/28 04:22:50;;;;;;;;;;;;;;;18.67;89.53;99779.47;1083280;54;19951;-77
2022/08/28 04:23:54;;;;;;;;;;;;;;;18.69;89.82;99782.00;1083691;54;19985;-77
2022/08/28 04:24:55;;;;;;;;;;;;;;;18.69;89.62;99773.88;1083815;54;19973;-77
2022/08/28 04:25:59;;;;;;;;;;;;;;;18.70;90.01;99780.97;1083738;54;20030;-77
2022/08/28 04:27:01;;;;;;;;;;;;;;;18.71;89.77;99782.59;1083825;54;20034;-77
2022/08/28 04:28:05;;;;;;;;;;;;;;;18.73;90.06;99783.25;1083997;39;20364;-78
2022/08/28 04:29:07;;;;;;;;;;;;;;;18.73;89.72;99785.13;1084167;39;20506;-78
2022/08/28 04:30:12;;;;;;;;;;;;;;;18.70;89.80;99784.50;1085080;39;20907;-77
2022/08/28 04:31:13;;;;;;;;;;;;;;;18.73;89.80;99787.84;1083731;54;20706;-76
2022/08/28 04:32:17;;;;;;;;;;;;;;;18.75;89.81;99791.19;1083856;54;19946;-77
2022/08/28 04:33:21;;;;;;;;;;;;;;;18.76;89.30;99790.13;1084264;39;20400;-78
2022/08/28 04:34:25;;;;;;;;;;;;;;;18.69;89.41;99790.94;1083516;54;19961;-78
2022/08/28 04:35:27;;;;;;;;;;;;;;;18.73;89.50;99787.84;1083892;54;19939;-79
2022/08/28 04:36:32;;;;;;;;;;;;;;;18.75;89.01;99792.00;1083528;54;19982;-76
2022/08/28 04:37:33;;;;;;;;;;;;;;;18.78;89.30;99790.75;1085469;54;19956;-77
2022/08/28 04:38:37;;;;;;;;;;;;;;;18.77;89.10;99787.22;1087273;54;19950;-78
2022/08/28 04:39:39;;;;;;;;;;;;;;;18.78;89.06;99783.47;1090593;39;20513;-78
2022/08/28 04:40:43;;;;;;;;;;;;;;;18.78;89.24;99791.59;1084999;39;20348;-81
2022/08/28 04:41:45;;;;;;;;;;;;;;;18.78;89.10;99796.16;1084535;54;19953;-79
2022/08/28 04:42:49;;;;;;;;;;;;;;;18.72;88.57;99792.41;1084523;54;19950;-78
2022/08/28 04:43:51;;;;;;;;;;;;;;;18.65;88.32;99787.00;1084613;54;19946;-79
2022/08/28 04:44:58;;;;;;;;;;;;;;;18.65;88.64;99784.28;1084917;46;19963;-78
2022/08/28 04:46:02;;;;;;;;;;;;;;;18.64;88.96;99788.03;1084819;54;20543;-80
2022/08/28 04:47:06;;;;;;;;;;;;;;;18.63;89.34;99799.91;1084580;54;20436;-79
2022/08/28 04:48:11;;;;;;;;;;;;;;;18.66;89.67;99804.06;1085104;54;19939;-81
2022/08/28 04:49:17;;;;;;;;;;;;;;;18.69;89.93;99803.66;1084880;54;19955;-79
2022/08/28 04:50:19;;;;;;;;;;;;;;;18.70;89.88;99798.03;1084927;54;19953;-81
2022/08/28 04:51:23;;;;;;;;;;;;;;;18.70;89.53;99805.34;1084428;54;20541;-80
2022/08/28 04:52:25;;;;;;;;;;;;;;;18.64;88.61;99801.56;1084155;54;19950;-79
2022/08/28 04:53:29;;;;;;;;;;;;;;;18.64;88.96;99803.44;1084304;54;19943;-79
2022/08/28 04:54:37;;;;;;;;;;;;;;;18.61;89.00;99803.84;1084150;54;19951;-80
2022/08/28 04:55:42;;;;;;;;;;;;;;;18.62;89.05;99802.78;1084035;54;19990;-80
2022/08/28 04:56:43;;;;;;;;;;;;;;;18.53;89.03;99811.09;1084177;54;19946;-78
2022/08/28 04:57:47;;;;;;;;;;;;;;;18.52;89.15;99800.47;1084162;54;19947;-79
2022/08/28 04:58:49;;;;;;;;;;;;;;;18.51;89.38;99802.38;1084462;54;19947;-79
2022/08/28 04:59:55;;;;;;;;;;;;;;;18.52;89.47;99808.59;1084384;54;19953;-79
2022/08/28 05:00:56;;;;;;;;;;;;;;;18.49;89.25;99804.44;1084178;54;19971;-79
2022/08/28 05:02:00;;;;;;;;;;;;;;;18.49;89.47;99798.16;1084864;39;20360;-77
2022/08/28 05:03:02;;;;;;;;;;;;;;;18.48;89.24;99802.75;1084074;54;19947;-79
2022/08/28 05:04:06;;;;;;;;;;;;;;;18.46;89.78;99809.41;1084107;54;19953;-80
2022/08/28 05:05:11;;;;;;;;;;;;;;;18.48;89.60;99801.91;1084546;54;19974;-79
2022/08/28 05:06:16;;;;;;;;;;;;;;;18.47;89.64;99802.94;1086254;31;20421;-79
2022/08/28 05:07:24;;;;;;;;;;;;;;;18.46;89.45;99812.94;1084484;54;19950;-79
2022/08/28 05:08:28;;;;;;;;;;;;;;;18.40;89.95;99811.88;1084415;54;19989;-79
2022/08/28 05:09:30;;;;;;;;;;;;;;;18.43;89.68;99816.03;1084330;54;20559;-79
2022/08/28 05:10:35;;;;;;;;;;;;;;;18.44;89.92;99814.19;1084579;54;20469;-79
2022/08/28 05:11:36;;;;;;;;;;;;;;;18.43;89.79;99802.50;1084681;54;19947;-79
2022/08/28 05:12:40;;;;;;;;;;;;;;;18.41;90.03;99812.72;1085112;39;20384;-79
2022/08/28 05:13:43;;;;;;;;;;;;;;;18.46;89.90;99809.41;1084541;54;19963;-79
2022/08/28 05:14:47;;;;;;;;;;;;;;;18.46;89.61;99815.66;1084352;54;19985;-79
2022/08/28 05:15:50;;;;;;;;;;;;;;;18.45;89.35;99813.16;1084548;54;19970;-80
2022/08/28 05:16:56;;;;;;;;;;;;;;;18.47;89.35;99813.75;1084496;54;19958;-78
2022/08/28 05:17:58;;;;;;;;;;;;;;;18.50;89.36;99810.66;1084461;54;19946;-79
2022/08/28 05:19:02;;;;;;;;;;;;;;;18.51;89.18;99815.91;1084551;54;19951;-79
2022/08/28 05:20:04;;;;;;;;;;;;;;;18.52;89.15;99809.41;1084523;54;19971;-79
2022/08/28 05:21:15;;;;;;;;;;;;;;;18.54;89.23;99814.66;1085991;39;20372;-79
2022/08/28 05:22:17;;;;;;;;;;;;;;;18.52;89.01;99814.84;1085483;54;19951;-79
2022/08/28 05:23:22;;;;;;;;;;;;;;;18.55;88.75;99813.63;1086363;54;20496;-80
2022/08/28 05:24:23;;;;;;;;;;;;;;;18.58;88.81;99815.06;1086560;54;19946;-78
2022/08/28 05:25:48;;;;;;;;;;;;;;;18.59;88.89;99811.34;1086592;54;19950;-81
2022/08/28 05:26:50;;;;;;;;;;;;;;;18.62;89.17;99813.63;1086832;54;19950;-79
2022/08/28 05:28:00;;;;;;;;;;;;;;;18.65;89.05;99813.22;1086651;54;19938;-80
2022/08/28 05:29:01;;;;;;;;;;;;;;;18.64;88.55;99816.97;1086455;54;19946;-79
2022/08/28 05:30:12;;;;;;;;;;;;;;;18.60;88.08;99821.13;1085903;47;20063;-79
2022/08/28 05:31:15;;;;;;;;;;;;;;;18.61;88.24;99817.38;1086858;39;20427;-80
2022/08/28 05:32:20;;;;;;;;;;;;;;;18.58;87.91;99818.59;1085603;54;19969;-80
2022/08/28 05:33:51;;;;;;;;;;;;;;;18.59;88.10;99816.75;1086209;54;19970;-79